sensor_id;sensor_type;location;lat;lon;timestamp;temperature;humidity
64858;SHT30;51335;51.148;6.950;2023-02-02T00:00:03;7.85;88.79
64858;SHT30;51335;51.148;6.950;2023-02-02T00:00:33;7.82;88.91
64858;SHT30;51335;51.148;6.950;2023-02-02T00:01:07;7.84;88.97
64858;SHT30;51335;51.148;6.950;2023-02-02T00:01:38;7.84;89.01
64858;SHT30;51335;51.148;6.950;2023-02-02T00:02:08;7.85;89.00
64858;SHT30;51335;51.148;6.950;2023-02-02T00:02:38;7.81;89.08
64858;SHT30;51335;51.148;6.950;2023-02-02T00:03:09;7.78;89.11
64858;SHT30;51335;51.148;6.950;2023-02-02T00:03:39;7.77;89.18
64858;SHT30;51335;51.148;6.950;2023-02-02T00:04:15;7.77;89.23
64858;SHT30;51335;51.148;6.950;2023-02-02T00:04:46;7.77;89.31
64858;SHT30;51335;51.148;6.950;2023-02-02T00:05:16;7.79;89.29
64858;SHT30;51335;51.148;6.950;2023-02-02T00:05:48;7.79;89.29
64858;SHT30;51335;51.148;6.950;2023-02-02T00:06:20;7.78;89.37
64858;SHT30;51335;51.148;6.950;2023-02-02T00:06:51;7.75;89.46
64858;SHT30;51335;51.148;6.950;2023-02-02T00:07:21;7.77;89.54
64858;SHT30;51335;51.148;6.950;2023-02-02T00:07:51;7.75;89.56
64858;SHT30;51335;51.148;6.950;2023-02-02T00:08:22;7.75;89.55
64858;SHT30;51335;51.148;6.950;2023-02-02T00:08:52;7.75;89.57
64858;SHT30;51335;51.148;6.950;2023-02-02T00:09:26;7.77;89.54
64858;SHT30;51335;51.148;6.950;2023-02-02T00:09:57;7.75;89.63
64858;SHT30;51335;51.148;6.950;2023-02-02T00:10:27;7.84;89.40
64858;SHT30;51335;51.148;6.950;2023-02-02T00:10:58;7.79;89.33
64858;SHT30;51335;51.148;6.950;2023-02-02T00:11:28;7.78;89.54
64858;SHT30;51335;51.148;6.950;2023-02-02T00:12:00;7.77;89.53
64858;SHT30;51335;51.148;6.950;2023-02-02T00:12:30;7.77;89.58
64858;SHT30;51335;51.148;6.950;2023-02-02T00:13:00;7.79;89.62
64858;SHT30;51335;51.148;6.950;2023-02-02T00:13:31;7.79;89.54
64858;SHT30;51335;51.148;6.950;2023-02-02T00:14:01;7.81;89.58
64858;SHT30;51335;51.148;6.950;2023-02-02T00:14:31;7.81;89.52
64858;SHT30;51335;51.148;6.950;2023-02-02T00:15:02;7.84;89.48
64858;SHT30;51335;51.148;6.950;2023-02-02T00:15:32;7.84;89.48
64858;SHT30;51335;51.148;6.950;2023-02-02T00:16:55;7.75;89.72
64858;SHT30;51335;51.148;6.950;2023-02-02T00:17:25;7.75;89.79
64858;SHT30;51335;51.148;6.950;2023-02-02T00:17:56;7.75;89.84
64858;SHT30;51335;51.148;6.950;2023-02-02T00:18:26;7.78;89.77
64858;SHT30;51335;51.148;6.950;2023-02-02T00:18:59;7.81;89.66
64858;SHT30;51335;51.148;6.950;2023-02-02T00:19:30;7.78;89.75
64858;SHT30;51335;51.148;6.950;2023-02-02T00:20:00;7.77;89.79
64858;SHT30;51335;51.148;6.950;2023-02-02T00:20:30;7.75;89.92
64858;SHT30;51335;51.148;6.950;2023-02-02T00:21:01;7.77;89.94
64858;SHT30;51335;51.148;6.950;2023-02-02T00:21:31;7.77;89.76
64858;SHT30;51335;51.148;6.950;2023-02-02T00:22:02;7.75;89.82
64858;SHT30;51335;51.148;6.950;2023-02-02T00:22:32;7.79;89.82
64858;SHT30;51335;51.148;6.950;2023-02-02T00:23:02;7.77;89.79
64858;SHT30;51335;51.148;6.950;2023-02-02T00:23:32;7.78;89.86
64858;SHT30;51335;51.148;6.950;2023-02-02T00:24:04;7.82;89.81
64858;SHT30;51335;51.148;6.950;2023-02-02T00:24:35;7.81;89.65
64858;SHT30;51335;51.148;6.950;2023-02-02T00:25:05;7.77;89.88
64858;SHT30;51335;51.148;6.950;2023-02-02T00:25:36;7.78;89.93
64858;SHT30;51335;51.148;6.950;2023-02-02T00:26:06;7.81;89.80
64858;SHT30;51335;51.148;6.950;2023-02-02T00:26:37;7.78;89.81
64858;SHT30;51335;51.148;6.950;2023-02-02T00:27:08;7.79;89.92
64858;SHT30;51335;51.148;6.950;2023-02-02T00:27:38;7.79;89.77
64858;SHT30;51335;51.148;6.950;2023-02-02T00:28:08;7.82;89.66
64858;SHT30;51335;51.148;6.950;2023-02-02T00:28:39;7.79;89.73
64858;SHT30;51335;51.148;6.950;2023-02-02T00:29:21;7.75;90.09
64858;SHT30;51335;51.148;6.950;2023-02-02T00:29:51;7.75;90.17
64858;SHT30;51335;51.148;6.950;2023-02-02T00:30:22;7.75;90.15
64858;SHT30;51335;51.148;6.950;2023-02-02T00:30:52;7.78;89.93
64858;SHT30;51335;51.148;6.950;2023-02-02T00:31:22;7.81;89.94
64858;SHT30;51335;51.148;6.950;2023-02-02T00:31:53;7.82;89.89
64858;SHT30;51335;51.148;6.950;2023-02-02T00:32:24;7.75;90.06
64858;SHT30;51335;51.148;6.950;2023-02-02T00:32:54;7.78;90.08
64858;SHT30;51335;51.148;6.950;2023-02-02T00:33:24;7.74;90.11
64858;SHT30;51335;51.148;6.950;2023-02-02T00:33:54;7.75;90.17
64858;SHT30;51335;51.148;6.950;2023-02-02T00:34:25;7.71;90.15
64858;SHT30;51335;51.148;6.950;2023-02-02T00:34:55;7.75;90.11
64858;SHT30;51335;51.148;6.950;2023-02-02T00:35:25;7.73;90.19
64858;SHT30;51335;51.148;6.950;2023-02-02T00:35:56;7.71;90.31
64858;SHT30;51335;51.148;6.950;2023-02-02T00:36:26;7.71;90.28
64858;SHT30;51335;51.148;6.950;2023-02-02T00:36:56;7.71;90.35
64858;SHT30;51335;51.148;6.950;2023-02-02T00:37:26;7.68;90.33
64858;SHT30;51335;51.148;6.950;2023-02-02T00:37:57;7.71;90.38
64858;SHT30;51335;51.148;6.950;2023-02-02T00:38:27;7.71;90.27
64858;SHT30;51335;51.148;6.950;2023-02-02T00:38:57;7.73;90.27
64858;SHT30;51335;51.148;6.950;2023-02-02T00:39:27;7.75;90.24
64858;SHT30;51335;51.148;6.950;2023-02-02T00:39:58;7.74;90.25
64858;SHT30;51335;51.148;6.950;2023-02-02T00:40:28;7.73;90.21
64858;SHT30;51335;51.148;6.950;2023-02-02T00:40:58;7.68;90.32
64858;SHT30;51335;51.148;6.950;2023-02-02T00:41:28;7.65;90.45
64858;SHT30;51335;51.148;6.950;2023-02-02T00:41:59;7.67;90.57
64858;SHT30;51335;51.148;6.950;2023-02-02T00:42:29;7.63;90.53
64858;SHT30;51335;51.148;6.950;2023-02-02T00:42:59;7.64;90.56
64858;SHT30;51335;51.148;6.950;2023-02-02T00:43:29;7.64;90.63
64858;SHT30;51335;51.148;6.950;2023-02-02T00:44:00;7.63;90.66
64858;SHT30;51335;51.148;6.950;2023-02-02T00:44:30;7.61;90.70
64858;SHT30;51335;51.148;6.950;2023-02-02T00:45:01;7.65;90.65
64858;SHT30;51335;51.148;6.950;2023-02-02T00:45:32;7.65;90.60
64858;SHT30;51335;51.148;6.950;2023-02-02T00:46:02;7.65;90.59
64858;SHT30;51335;51.148;6.950;2023-02-02T00:46:33;7.64;90.61
64858;SHT30;51335;51.148;6.950;2023-02-02T00:47:03;7.64;90.63
64858;SHT30;51335;51.148;6.950;2023-02-02T00:47:34;7.60;90.58
64858;SHT30;51335;51.148;6.950;2023-02-02T00:48:04;7.65;90.60
64858;SHT30;51335;51.148;6.950;2023-02-02T00:48:34;7.67;90.52
64858;SHT30;51335;51.148;6.950;2023-02-02T00:49:05;7.61;90.55
64858;SHT30;51335;51.148;6.950;2023-02-02T00:49:35;7.65;90.59
64858;SHT30;51335;51.148;6.950;2023-02-02T00:50:06;7.68;90.54
64858;SHT30;51335;51.148;6.950;2023-02-02T00:50:36;7.67;90.64
64858;SHT30;51335;51.148;6.950;2023-02-02T00:51:06;7.68;90.66
64858;SHT30;51335;51.148;6.950;2023-02-02T00:51:37;7.67;90.75
64858;SHT30;51335;51.148;6.950;2023-02-02T00:52:07;7.70;90.74
64858;SHT30;51335;51.148;6.950;2023-02-02T00:52:37;7.65;90.82
64858;SHT30;51335;51.148;6.950;2023-02-02T00:53:07;7.65;90.84
64858;SHT30;51335;51.148;6.950;2023-02-02T00:53:38;7.63;90.98
64858;SHT30;51335;51.148;6.950;2023-02-02T00:54:08;7.65;90.99
64858;SHT30;51335;51.148;6.950;2023-02-02T00:54:39;7.57;91.11
64858;SHT30;51335;51.148;6.950;2023-02-02T00:55:10;7.60;91.19
64858;SHT30;51335;51.148;6.950;2023-02-02T00:55:40;7.61;91.10
64858;SHT30;51335;51.148;6.950;2023-02-02T00:56:11;7.61;91.18
64858;SHT30;51335;51.148;6.950;2023-02-02T00:56:41;7.54;91.39
64858;SHT30;51335;51.148;6.950;2023-02-02T00:57:12;7.55;91.60
64858;SHT30;51335;51.148;6.950;2023-02-02T00:57:43;7.57;91.58
64858;SHT30;51335;51.148;6.950;2023-02-02T00:58:13;7.61;91.51
64858;SHT30;51335;51.148;6.950;2023-02-02T00:58:43;7.63;91.53
64858;SHT30;51335;51.148;6.950;2023-02-02T00:59:14;7.60;91.40
64858;SHT30;51335;51.148;6.950;2023-02-02T00:59:44;7.58;91.53
64858;SHT30;51335;51.148;6.950;2023-02-02T01:00:17;7.54;91.46
64858;SHT30;51335;51.148;6.950;2023-02-02T01:00:48;7.57;91.47
64858;SHT30;51335;51.148;6.950;2023-02-02T01:01:19;7.57;91.47
64858;SHT30;51335;51.148;6.950;2023-02-02T01:01:49;7.58;91.55
64858;SHT30;51335;51.148;6.950;2023-02-02T01:02:20;7.55;91.70
64858;SHT30;51335;51.148;6.950;2023-02-02T01:02:52;7.60;91.65
64858;SHT30;51335;51.148;6.950;2023-02-02T01:03:22;7.51;91.73
64858;SHT30;51335;51.148;6.950;2023-02-02T01:03:52;7.54;91.60
64858;SHT30;51335;51.148;6.950;2023-02-02T01:04:23;7.57;91.60
64858;SHT30;51335;51.148;6.950;2023-02-02T01:04:53;7.55;91.63
64858;SHT30;51335;51.148;6.950;2023-02-02T01:05:23;7.58;91.71
64858;SHT30;51335;51.148;6.950;2023-02-02T01:05:54;7.54;91.75
64858;SHT30;51335;51.148;6.950;2023-02-02T01:06:24;7.53;91.88
64858;SHT30;51335;51.148;6.950;2023-02-02T01:06:54;7.53;91.88
64858;SHT30;51335;51.148;6.950;2023-02-02T01:07:24;7.48;92.05
64858;SHT30;51335;51.148;6.950;2023-02-02T01:07:55;7.50;91.96
64858;SHT30;51335;51.148;6.950;2023-02-02T01:08:25;7.53;92.02
64858;SHT30;51335;51.148;6.950;2023-02-02T01:08:55;7.50;92.15
64858;SHT30;51335;51.148;6.950;2023-02-02T01:09:26;7.50;92.17
64858;SHT30;51335;51.148;6.950;2023-02-02T01:09:56;7.51;92.10
64858;SHT30;51335;51.148;6.950;2023-02-02T01:10:27;7.51;92.21
64858;SHT30;51335;51.148;6.950;2023-02-02T01:11:00;7.53;92.15
64858;SHT30;51335;51.148;6.950;2023-02-02T01:11:30;7.51;92.24
64858;SHT30;51335;51.148;6.950;2023-02-02T01:12:01;7.51;92.33
64858;SHT30;51335;51.148;6.950;2023-02-02T01:12:31;7.47;92.53
64858;SHT30;51335;51.148;6.950;2023-02-02T01:13:02;7.51;92.32
64858;SHT30;51335;51.148;6.950;2023-02-02T01:13:32;7.48;92.43
64858;SHT30;51335;51.148;6.950;2023-02-02T01:14:02;7.50;92.44
64858;SHT30;51335;51.148;6.950;2023-02-02T01:14:33;7.47;92.36
64858;SHT30;51335;51.148;6.950;2023-02-02T01:15:03;7.48;92.40
64858;SHT30;51335;51.148;6.950;2023-02-02T01:15:43;7.46;92.51
64858;SHT30;51335;51.148;6.950;2023-02-02T01:16:13;7.46;92.60
64858;SHT30;51335;51.148;6.950;2023-02-02T01:16:43;7.46;92.58
64858;SHT30;51335;51.148;6.950;2023-02-02T01:17:13;7.46;92.51
64858;SHT30;51335;51.148;6.950;2023-02-02T01:17:44;7.46;92.41
64858;SHT30;51335;51.148;6.950;2023-02-02T01:18:14;7.48;92.48
64858;SHT30;51335;51.148;6.950;2023-02-02T01:18:44;7.51;92.38
64858;SHT30;51335;51.148;6.950;2023-02-02T01:19:15;7.50;92.43
64858;SHT30;51335;51.148;6.950;2023-02-02T01:19:45;7.50;92.43
64858;SHT30;51335;51.148;6.950;2023-02-02T01:20:18;7.48;92.43
64858;SHT30;51335;51.148;6.950;2023-02-02T01:21:02;7.47;92.52
64858;SHT30;51335;51.148;6.950;2023-02-02T01:21:32;7.48;92.31
64858;SHT30;51335;51.148;6.950;2023-02-02T01:22:02;7.51;92.17
64858;SHT30;51335;51.148;6.950;2023-02-02T01:22:33;7.54;92.34
64858;SHT30;51335;51.148;6.950;2023-02-02T01:23:03;7.48;92.23
64858;SHT30;51335;51.148;6.950;2023-02-02T01:23:34;7.47;92.47
64858;SHT30;51335;51.148;6.950;2023-02-02T01:24:05;7.54;92.33
64858;SHT30;51335;51.148;6.950;2023-02-02T01:24:35;7.54;92.31
64858;SHT30;51335;51.148;6.950;2023-02-02T01:25:06;7.51;92.12
64858;SHT30;51335;51.148;6.950;2023-02-02T01:25:36;7.51;92.20
64858;SHT30;51335;51.148;6.950;2023-02-02T01:26:09;7.51;92.14
64858;SHT30;51335;51.148;6.950;2023-02-02T01:26:39;7.53;92.20
64858;SHT30;51335;51.148;6.950;2023-02-02T01:27:10;7.57;91.99
64858;SHT30;51335;51.148;6.950;2023-02-02T01:27:40;7.55;91.97
64858;SHT30;51335;51.148;6.950;2023-02-02T01:28:10;7.57;92.03
64858;SHT30;51335;51.148;6.950;2023-02-02T01:28:41;7.54;91.88
64858;SHT30;51335;51.148;6.950;2023-02-02T01:29:11;7.53;91.99
64858;SHT30;51335;51.148;6.950;2023-02-02T01:29:42;7.50;92.11
64858;SHT30;51335;51.148;6.950;2023-02-02T01:30:12;7.48;92.19
64858;SHT30;51335;51.148;6.950;2023-02-02T01:30:42;7.54;92.19
64858;SHT30;51335;51.148;6.950;2023-02-02T01:31:17;7.55;92.08
64858;SHT30;51335;51.148;6.950;2023-02-02T01:31:48;7.55;92.04
64858;SHT30;51335;51.148;6.950;2023-02-02T01:32:19;7.55;92.06
64858;SHT30;51335;51.148;6.950;2023-02-02T01:32:49;7.58;92.05
64858;SHT30;51335;51.148;6.950;2023-02-02T01:33:19;7.55;92.01
64858;SHT30;51335;51.148;6.950;2023-02-02T01:33:50;7.55;91.94
64858;SHT30;51335;51.148;6.950;2023-02-02T01:34:20;7.58;91.90
64858;SHT30;51335;51.148;6.950;2023-02-02T01:34:50;7.61;91.84
64858;SHT30;51335;51.148;6.950;2023-02-02T01:35:21;7.58;91.79
64858;SHT30;51335;51.148;6.950;2023-02-02T01:35:54;7.55;91.94
64858;SHT30;51335;51.148;6.950;2023-02-02T01:36:24;7.58;92.03
64858;SHT30;51335;51.148;6.950;2023-02-02T01:36:54;7.53;92.08
64858;SHT30;51335;51.148;6.950;2023-02-02T01:37:25;7.55;92.09
64858;SHT30;51335;51.148;6.950;2023-02-02T01:37:55;7.55;92.09
64858;SHT30;51335;51.148;6.950;2023-02-02T01:38:25;7.55;92.19
64858;SHT30;51335;51.148;6.950;2023-02-02T01:38:55;7.51;92.26
64858;SHT30;51335;51.148;6.950;2023-02-02T01:39:26;7.48;92.45
64858;SHT30;51335;51.148;6.950;2023-02-02T01:39:56;7.48;92.50
64858;SHT30;51335;51.148;6.950;2023-02-02T01:40:26;7.46;92.66
64858;SHT30;51335;51.148;6.950;2023-02-02T01:40:57;7.47;92.66
64858;SHT30;51335;51.148;6.950;2023-02-02T01:41:27;7.44;92.89
64858;SHT30;51335;51.148;6.950;2023-02-02T01:41:58;7.47;92.98
64858;SHT30;51335;51.148;6.950;2023-02-02T01:42:28;7.44;93.07
64858;SHT30;51335;51.148;6.950;2023-02-02T01:42:59;7.42;93.20
64858;SHT30;51335;51.148;6.950;2023-02-02T01:43:47;7.40;93.33
64858;SHT30;51335;51.148;6.950;2023-02-02T01:45:39;7.40;93.62
64858;SHT30;51335;51.148;6.950;2023-02-02T01:46:15;7.36;93.65
64858;SHT30;51335;51.148;6.950;2023-02-02T01:46:45;7.36;93.73
64858;SHT30;51335;51.148;6.950;2023-02-02T01:47:16;7.37;93.80
64858;SHT30;51335;51.148;6.950;2023-02-02T01:47:51;7.36;93.70
64858;SHT30;51335;51.148;6.950;2023-02-02T01:48:28;7.37;93.77
64858;SHT30;51335;51.148;6.950;2023-02-02T01:49:02;7.36;93.80
64858;SHT30;51335;51.148;6.950;2023-02-02T01:49:32;7.33;93.93
64858;SHT30;51335;51.148;6.950;2023-02-02T01:50:04;7.33;93.94
64858;SHT30;51335;51.148;6.950;2023-02-02T01:50:35;7.33;93.97
64858;SHT30;51335;51.148;6.950;2023-02-02T01:51:10;7.33;93.98
64858;SHT30;51335;51.148;6.950;2023-02-02T01:52:21;7.34;93.95
64858;SHT30;51335;51.148;6.950;2023-02-02T01:52:55;7.34;93.89
64858;SHT30;51335;51.148;6.950;2023-02-02T01:53:27;7.37;93.89
64858;SHT30;51335;51.148;6.950;2023-02-02T01:53:58;7.34;93.92
64858;SHT30;51335;51.148;6.950;2023-02-02T01:54:33;7.36;94.02
64858;SHT30;51335;51.148;6.950;2023-02-02T01:55:09;7.36;93.95
64858;SHT30;51335;51.148;6.950;2023-02-02T01:55:41;7.36;93.86
64858;SHT30;51335;51.148;6.950;2023-02-02T01:56:16;7.36;93.88
64858;SHT30;51335;51.148;6.950;2023-02-02T01:56:54;7.36;94.01
64858;SHT30;51335;51.148;6.950;2023-02-02T01:57:30;7.40;93.95
64858;SHT30;51335;51.148;6.950;2023-02-02T01:58:06;7.37;93.79
64858;SHT30;51335;51.148;6.950;2023-02-02T01:58:40;7.38;93.89
64858;SHT30;51335;51.148;6.950;2023-02-02T01:59:13;7.38;93.83
64858;SHT30;51335;51.148;6.950;2023-02-02T01:59:46;7.34;93.92
64858;SHT30;51335;51.148;6.950;2023-02-02T02:00:17;7.37;93.96
64858;SHT30;51335;51.148;6.950;2023-02-02T02:00:48;7.34;94.11
64858;SHT30;51335;51.148;6.950;2023-02-02T02:01:19;7.36;94.07
64858;SHT30;51335;51.148;6.950;2023-02-02T02:01:50;7.36;94.13
64858;SHT30;51335;51.148;6.950;2023-02-02T02:02:22;7.34;94.10
64858;SHT30;51335;51.148;6.950;2023-02-02T02:03:00;7.37;94.13
64858;SHT30;51335;51.148;6.950;2023-02-02T02:03:33;7.36;94.13
64858;SHT30;51335;51.148;6.950;2023-02-02T02:04:05;7.34;94.26
64858;SHT30;51335;51.148;6.950;2023-02-02T02:04:35;7.30;94.28
64858;SHT30;51335;51.148;6.950;2023-02-02T02:05:06;7.28;94.40
64858;SHT30;51335;51.148;6.950;2023-02-02T02:05:58;7.30;94.52
64858;SHT30;51335;51.148;6.950;2023-02-02T02:06:30;7.28;94.59
64858;SHT30;51335;51.148;6.950;2023-02-02T02:07:01;7.34;94.26
64858;SHT30;51335;51.148;6.950;2023-02-02T02:07:33;7.31;94.41
64858;SHT30;51335;51.148;6.950;2023-02-02T02:08:15;7.33;94.48
64858;SHT30;51335;51.148;6.950;2023-02-02T02:08:54;7.30;94.58
64858;SHT30;51335;51.148;6.950;2023-02-02T02:09:25;7.28;94.67
64858;SHT30;51335;51.148;6.950;2023-02-02T02:09:55;7.27;94.66
64858;SHT30;51335;51.148;6.950;2023-02-02T02:10:26;7.30;94.55
64858;SHT30;51335;51.148;6.950;2023-02-02T02:10:56;7.27;94.56
64858;SHT30;51335;51.148;6.950;2023-02-02T02:11:26;7.30;94.59
64858;SHT30;51335;51.148;6.950;2023-02-02T02:11:57;7.34;94.45
64858;SHT30;51335;51.148;6.950;2023-02-02T02:12:27;7.36;94.36
64858;SHT30;51335;51.148;6.950;2023-02-02T02:12:57;7.31;94.43
64858;SHT30;51335;51.148;6.950;2023-02-02T02:13:29;7.31;94.52
64858;SHT30;51335;51.148;6.950;2023-02-02T02:14:03;7.31;94.69
64858;SHT30;51335;51.148;6.950;2023-02-02T02:14:33;7.28;94.76
64858;SHT30;51335;51.148;6.950;2023-02-02T02:15:04;7.30;94.68
64858;SHT30;51335;51.148;6.950;2023-02-02T02:15:42;7.28;94.70
64858;SHT30;51335;51.148;6.950;2023-02-02T02:16:23;7.30;94.65
64858;SHT30;51335;51.148;6.950;2023-02-02T02:18:44;7.34;94.53
64858;SHT30;51335;51.148;6.950;2023-02-02T02:24:14;7.31;94.24
64858;SHT30;51335;51.148;6.950;2023-02-02T02:30:38;7.33;94.64
64858;SHT30;51335;51.148;6.950;2023-02-02T02:32:13;7.26;95.16
64858;SHT30;51335;51.148;6.950;2023-02-02T02:33:52;7.24;95.41
64858;SHT30;51335;51.148;6.950;2023-02-02T02:34:47;7.24;95.47
64858;SHT30;51335;51.148;6.950;2023-02-02T02:35:33;7.24;95.39
64858;SHT30;51335;51.148;6.950;2023-02-02T02:36:50;7.26;95.69
64858;SHT30;51335;51.148;6.950;2023-02-02T02:37:36;7.26;95.64
64858;SHT30;51335;51.148;6.950;2023-02-02T02:38:36;7.23;95.61
64858;SHT30;51335;51.148;6.950;2023-02-02T02:39:19;7.30;95.62
64858;SHT30;51335;51.148;6.950;2023-02-02T02:40:35;7.22;95.97
64858;SHT30;51335;51.148;6.950;2023-02-02T02:41:15;7.17;96.21
64858;SHT30;51335;51.148;6.950;2023-02-02T02:41:52;7.22;95.95
64858;SHT30;51335;51.148;6.950;2023-02-02T02:42:26;7.24;95.94
64858;SHT30;51335;51.148;6.950;2023-02-02T02:43:01;7.23;95.76
64858;SHT30;51335;51.148;6.950;2023-02-02T02:43:39;7.26;95.88
64858;SHT30;51335;51.148;6.950;2023-02-02T02:44:13;7.23;95.84
64858;SHT30;51335;51.148;6.950;2023-02-02T02:44:46;7.24;95.90
64858;SHT30;51335;51.148;6.950;2023-02-02T02:45:17;7.16;95.93
64858;SHT30;51335;51.148;6.950;2023-02-02T02:45:49;7.15;96.17
64858;SHT30;51335;51.148;6.950;2023-02-02T02:46:20;7.16;96.19
64858;SHT30;51335;51.148;6.950;2023-02-02T02:46:51;7.16;96.24
64858;SHT30;51335;51.148;6.950;2023-02-02T02:47:22;7.19;96.09
64858;SHT30;51335;51.148;6.950;2023-02-02T02:47:53;7.17;96.09
64858;SHT30;51335;51.148;6.950;2023-02-02T02:48:23;7.17;96.05
64858;SHT30;51335;51.148;6.950;2023-02-02T02:48:57;7.15;96.08
64858;SHT30;51335;51.148;6.950;2023-02-02T02:49:28;7.19;96.02
64858;SHT30;51335;51.148;6.950;2023-02-02T02:49:59;7.20;95.89
64858;SHT30;51335;51.148;6.950;2023-02-02T02:50:29;7.16;95.80
64858;SHT30;51335;51.148;6.950;2023-02-02T02:51:55;7.09;96.18
64858;SHT30;51335;51.148;6.950;2023-02-02T02:52:25;7.09;96.27
64858;SHT30;51335;51.148;6.950;2023-02-02T02:53:02;7.16;96.09
64858;SHT30;51335;51.148;6.950;2023-02-02T02:53:35;7.16;95.99
64858;SHT30;51335;51.148;6.950;2023-02-02T02:54:06;7.15;95.76
64858;SHT30;51335;51.148;6.950;2023-02-02T02:54:54;7.17;95.77
64858;SHT30;51335;51.148;6.950;2023-02-02T02:55:28;7.13;95.79
64858;SHT30;51335;51.148;6.950;2023-02-02T02:57:57;7.13;95.89
64858;SHT30;51335;51.148;6.950;2023-02-02T03:01:06;7.13;95.61
64858;SHT30;51335;51.148;6.950;2023-02-02T03:03:11;7.22;95.32
64858;SHT30;51335;51.148;6.950;2023-02-02T03:04:20;7.27;95.21
64858;SHT30;51335;51.148;6.950;2023-02-02T03:05:06;7.24;95.14
64858;SHT30;51335;51.148;6.950;2023-02-02T03:06:22;7.27;94.90
64858;SHT30;51335;51.148;6.950;2023-02-02T03:06:54;7.24;95.10
64858;SHT30;51335;51.148;6.950;2023-02-02T03:07:29;7.23;95.14
64858;SHT30;51335;51.148;6.950;2023-02-02T03:08:09;7.24;95.19
64858;SHT30;51335;51.148;6.950;2023-02-02T03:08:52;7.19;95.38
64858;SHT30;51335;51.148;6.950;2023-02-02T03:09:29;7.22;95.44
64858;SHT30;51335;51.148;6.950;2023-02-02T03:10:04;7.16;95.40
64858;SHT30;51335;51.148;6.950;2023-02-02T03:10:38;7.15;95.44
64858;SHT30;51335;51.148;6.950;2023-02-02T03:11:11;7.19;95.53
64858;SHT30;51335;51.148;6.950;2023-02-02T03:11:42;7.20;95.32
64858;SHT30;51335;51.148;6.950;2023-02-02T03:12:15;7.23;95.30
64858;SHT30;51335;51.148;6.950;2023-02-02T03:12:47;7.23;95.30
64858;SHT30;51335;51.148;6.950;2023-02-02T03:13:18;7.22;95.32
64858;SHT30;51335;51.148;6.950;2023-02-02T03:13:48;7.24;95.25
64858;SHT30;51335;51.148;6.950;2023-02-02T03:14:18;7.24;95.20
64858;SHT30;51335;51.148;6.950;2023-02-02T03:14:49;7.24;95.14
64858;SHT30;51335;51.148;6.950;2023-02-02T03:15:19;7.22;95.19
64858;SHT30;51335;51.148;6.950;2023-02-02T03:15:49;7.20;95.14
64858;SHT30;51335;51.148;6.950;2023-02-02T03:16:20;7.16;95.24
64858;SHT30;51335;51.148;6.950;2023-02-02T03:16:51;7.12;95.48
64858;SHT30;51335;51.148;6.950;2023-02-02T03:17:21;7.10;95.66
64858;SHT30;51335;51.148;6.950;2023-02-02T03:17:52;7.12;95.50
64858;SHT30;51335;51.148;6.950;2023-02-02T03:18:26;7.12;95.31
64858;SHT30;51335;51.148;6.950;2023-02-02T03:18:57;7.13;95.40
64858;SHT30;51335;51.148;6.950;2023-02-02T03:19:28;7.16;95.49
64858;SHT30;51335;51.148;6.950;2023-02-02T03:19:58;7.20;95.37
64858;SHT30;51335;51.148;6.950;2023-02-02T03:20:28;7.17;95.06
64858;SHT30;51335;51.148;6.950;2023-02-02T03:20:59;7.13;95.29
64858;SHT30;51335;51.148;6.950;2023-02-02T03:21:30;7.15;95.59
64858;SHT30;51335;51.148;6.950;2023-02-02T03:22:00;7.17;95.56
64858;SHT30;51335;51.148;6.950;2023-02-02T03:22:30;7.22;95.24
64858;SHT30;51335;51.148;6.950;2023-02-02T03:23:00;7.24;95.13
64858;SHT30;51335;51.148;6.950;2023-02-02T03:23:31;7.20;94.92
64858;SHT30;51335;51.148;6.950;2023-02-02T03:24:01;7.24;94.97
64858;SHT30;51335;51.148;6.950;2023-02-02T03:24:31;7.24;94.98
64858;SHT30;51335;51.148;6.950;2023-02-02T03:25:02;7.17;94.97
64858;SHT30;51335;51.148;6.950;2023-02-02T03:25:32;7.15;95.24
64858;SHT30;51335;51.148;6.950;2023-02-02T03:26:03;7.17;95.18
64858;SHT30;51335;51.148;6.950;2023-02-02T03:26:33;7.15;95.33
64858;SHT30;51335;51.148;6.950;2023-02-02T03:27:04;7.15;95.39
64858;SHT30;51335;51.148;6.950;2023-02-02T03:27:35;7.16;95.36
64858;SHT30;51335;51.148;6.950;2023-02-02T03:28:06;7.15;95.38
64858;SHT30;51335;51.148;6.950;2023-02-02T03:28:37;7.12;95.58
64858;SHT30;51335;51.148;6.950;2023-02-02T03:29:07;7.15;95.42
64858;SHT30;51335;51.148;6.950;2023-02-02T03:29:38;7.15;95.39
64858;SHT30;51335;51.148;6.950;2023-02-02T03:30:10;7.16;95.35
64858;SHT30;51335;51.148;6.950;2023-02-02T03:30:42;7.17;95.03
64858;SHT30;51335;51.148;6.950;2023-02-02T03:31:13;7.19;95.08
64858;SHT30;51335;51.148;6.950;2023-02-02T03:31:45;7.19;95.24
64858;SHT30;51335;51.148;6.950;2023-02-02T03:32:15;7.20;95.18
64858;SHT30;51335;51.148;6.950;2023-02-02T03:32:46;7.15;95.23
64858;SHT30;51335;51.148;6.950;2023-02-02T03:33:16;7.24;95.25
64858;SHT30;51335;51.148;6.950;2023-02-02T03:33:46;7.20;94.88
64858;SHT30;51335;51.148;6.950;2023-02-02T03:34:17;7.23;94.93
64858;SHT30;51335;51.148;6.950;2023-02-02T03:34:47;7.26;94.66
64858;SHT30;51335;51.148;6.950;2023-02-02T03:35:17;7.26;94.57
64858;SHT30;51335;51.148;6.950;2023-02-02T03:35:47;7.23;94.54
64858;SHT30;51335;51.148;6.950;2023-02-02T03:36:18;7.22;94.70
64858;SHT30;51335;51.148;6.950;2023-02-02T03:36:48;7.24;94.77
64858;SHT30;51335;51.148;6.950;2023-02-02T03:37:18;7.23;94.78
64858;SHT30;51335;51.148;6.950;2023-02-02T03:37:48;7.23;94.81
64858;SHT30;51335;51.148;6.950;2023-02-02T03:38:19;7.26;94.88
64858;SHT30;51335;51.148;6.950;2023-02-02T03:38:49;7.23;95.00
64858;SHT30;51335;51.148;6.950;2023-02-02T03:39:19;7.23;94.88
64858;SHT30;51335;51.148;6.950;2023-02-02T03:39:49;7.26;94.76
64858;SHT30;51335;51.148;6.950;2023-02-02T03:40:20;7.27;94.69
64858;SHT30;51335;51.148;6.950;2023-02-02T03:40:50;7.27;94.59
64858;SHT30;51335;51.148;6.950;2023-02-02T03:41:21;7.28;94.61
64858;SHT30;51335;51.148;6.950;2023-02-02T03:41:51;7.24;94.71
64858;SHT30;51335;51.148;6.950;2023-02-02T03:42:21;7.27;94.78
64858;SHT30;51335;51.148;6.950;2023-02-02T03:42:52;7.28;94.70
64858;SHT30;51335;51.148;6.950;2023-02-02T03:43:23;7.31;94.69
64858;SHT30;51335;51.148;6.950;2023-02-02T03:43:53;7.33;94.61
64858;SHT30;51335;51.148;6.950;2023-02-02T03:44:23;7.33;94.54
64858;SHT30;51335;51.148;6.950;2023-02-02T03:44:53;7.27;94.67
64858;SHT30;51335;51.148;6.950;2023-02-02T03:45:26;7.27;94.68
64858;SHT30;51335;51.148;6.950;2023-02-02T03:45:59;7.26;94.66
64858;SHT30;51335;51.148;6.950;2023-02-02T03:46:30;7.24;94.78
64858;SHT30;51335;51.148;6.950;2023-02-02T03:47:00;7.20;94.96
64858;SHT30;51335;51.148;6.950;2023-02-02T03:47:31;7.22;95.04
64858;SHT30;51335;51.148;6.950;2023-02-02T03:48:04;7.22;95.18
64858;SHT30;51335;51.148;6.950;2023-02-02T03:48:36;7.23;95.17
64858;SHT30;51335;51.148;6.950;2023-02-02T03:49:07;7.27;95.15
64858;SHT30;51335;51.148;6.950;2023-02-02T03:49:37;7.24;95.15
64858;SHT30;51335;51.148;6.950;2023-02-02T03:50:08;7.20;95.28
64858;SHT30;51335;51.148;6.950;2023-02-02T03:50:38;7.20;95.34
64858;SHT30;51335;51.148;6.950;2023-02-02T03:51:11;7.20;95.41